createdAt,value
2016-12-22T00:01:01.178Z,20.41
2016-12-22T00:02:09.863Z,20.47
2016-12-22T00:03:18.880Z,20.43
2016-12-22T00:04:28.494Z,20.39
2016-12-22T00:05:37.193Z,20.42
2016-12-22T00:06:45.876Z,20.55
2016-12-22T00:07:55.189Z,20.5
2016-12-22T00:09:03.883Z,20.52
2016-12-22T00:10:12.891Z,20.52
2016-12-22T00:11:21.885Z,20.54
2016-12-22T00:12:30.570Z,20.5
2016-12-22T00:13:39.264Z,20.42
2016-12-22T00:14:48.572Z,20.41
2016-12-22T00:15:57.254Z,20.42
2016-12-22T00:17:06.239Z,20.5
2016-12-22T00:18:14.931Z,20.43
2016-12-22T00:19:23.919Z,20.42
2016-12-22T00:20:32.611Z,20.42
2016-12-22T00:21:41.304Z,20.41
2016-12-22T00:22:49.991Z,20.42
2016-12-22T00:23:58.998Z,20.36
2016-12-22T00:25:08.615Z,20.39
2016-12-22T00:26:17.969Z,20.33
2016-12-22T00:27:27.583Z,20.36
2016-12-22T00:28:36.574Z,20.33
2016-12-22T00:29:45.908Z,20.39
2016-12-22T00:30:55.224Z,20.39
2016-12-22T00:32:03.903Z,20.31
2016-12-22T00:33:12.595Z,20.31
2016-12-22T00:34:21.623Z,20.23
2016-12-22T00:35:30.317Z,20.28
2016-12-22T00:36:39.004Z,20.13
2016-12-22T00:37:48.301Z,20.2
2016-12-22T00:38:56.983Z,20.21
2016-12-22T00:40:05.993Z,20.2
2016-12-22T00:41:14.998Z,20.2
2016-12-22T00:42:23.710Z,20.13
2016-12-22T00:43:32.718Z,20.13
2016-12-22T00:44:41.396Z,20.21
2016-12-22T00:45:50.093Z,20.2
2016-12-22T00:46:59.082Z,20.06
2016-12-22T00:48:08.374Z,20.13
2016-12-22T00:49:17.369Z,20.1
2016-12-22T00:50:26.977Z,20.1
2016-12-22T00:51:35.970Z,20.01
2016-12-22T00:52:45.274Z,19.99
2016-12-22T00:53:53.966Z,20.01
2016-12-22T00:55:02.654Z,19.96
2016-12-22T00:56:11.770Z,20.03
2016-12-22T00:57:20.757Z,20.05
2016-12-22T00:58:29.432Z,20.01
2016-12-22T00:59:38.170Z,19.98
2016-12-22T01:00:47.151Z,19.96
2016-12-22T01:01:56.132Z,19.99
2016-12-22T01:03:04.809Z,19.98
2016-12-22T01:04:13.500Z,19.94
2016-12-22T01:05:22.180Z,19.95
2016-12-22T01:06:31.490Z,19.84
2016-12-22T01:07:40.181Z,19.86
2016-12-22T01:08:49.183Z,19.91
2016-12-22T01:09:58.515Z,19.87
2016-12-22T01:11:07.518Z,19.88
2016-12-22T01:12:16.540Z,19.78
2016-12-22T01:13:26.160Z,19.83
2016-12-22T01:14:35.457Z,19.84
2016-12-22T01:15:44.450Z,19.84
2016-12-22T01:16:53.445Z,19.84
2016-12-22T01:18:02.445Z,19.86
2016-12-22T01:19:11.151Z,19.88
2016-12-22T01:20:19.824Z,19.87
2016-12-22T01:21:29.743Z,19.87
2016-12-22T01:22:39.042Z,19.95
2016-12-22T01:23:48.339Z,19.86
2016-12-22T01:24:57.020Z,19.86
2016-12-22T01:26:06.003Z,19.96
2016-12-22T01:27:14.697Z,19.95
2016-12-22T01:28:23.693Z,19.98
2016-12-22T01:29:32.395Z,19.98
2016-12-22T01:30:41.069Z,19.98
2016-12-22T01:31:50.412Z,20.03
2016-12-22T01:33:00.030Z,19.96
2016-12-22T01:34:09.023Z,20.05
2016-12-22T01:35:18.004Z,20.08
2016-12-22T01:36:27.303Z,20.06
2016-12-22T01:37:36.284Z,20.06
2016-12-22T01:38:45.588Z,20.06
2016-12-22T01:39:54.268Z,20.16
2016-12-22T01:41:02.950Z,20.13
2016-12-22T01:42:12.306Z,20.1
2016-12-22T01:43:20.993Z,20.17
2016-12-22T01:44:29.980Z,20.1
2016-12-22T01:45:39.281Z,20.1
2016-12-22T01:46:48.579Z,20.13
2016-12-22T01:47:57.264Z,20.17
2016-12-22T01:49:06.264Z,20.24
2016-12-22T01:50:14.953Z,20.24
2016-12-22T01:51:24.249Z,20.21
2016-12-22T01:52:33.253Z,20.21
2016-12-22T01:53:42.559Z,20.17
2016-12-22T01:54:51.915Z,20.18
2016-12-22T01:56:00.905Z,20.28
2016-12-22T01:57:09.607Z,20.16
2016-12-22T01:58:18.602Z,20.28
2016-12-22T01:59:27.986Z,20.21
2016-12-22T02:00:36.671Z,20.21
2016-12-22T02:01:45.993Z,20.17
2016-12-22T02:02:54.983Z,20.21
2016-12-22T02:04:04.879Z,20.24
2016-12-22T02:05:13.570Z,20.17
2016-12-22T02:06:22.287Z,20.2
2016-12-22T02:07:30.968Z,20.24
2016-12-22T02:08:40.256Z,20.24
2016-12-22T02:09:49.874Z,20.21
2016-12-22T02:10:59.174Z,20.21
2016-12-22T02:12:07.851Z,20.21
2016-12-22T02:13:16.541Z,20.14
2016-12-22T02:14:25.841Z,20.16
2016-12-22T02:15:34.527Z,20.18
2016-12-22T02:16:43.507Z,20.17
2016-12-22T02:17:52.499Z,20.24
2016-12-22T02:19:01.179Z,20.18
2016-12-22T02:20:10.175Z,20.1
2016-12-22T02:21:19.156Z,20.18
2016-12-22T02:22:28.142Z,20.2
2016-12-22T02:23:37.141Z,20.2
2016-12-22T02:24:46.133Z,20.2
2016-12-22T02:25:55.116Z,20.16
2016-12-22T02:27:04.122Z,20.18
2016-12-22T02:28:13.405Z,20.13
2016-12-22T02:29:22.711Z,20.2
2016-12-22T02:30:31.399Z,20.16
2016-12-22T02:31:40.070Z,20.13
2016-12-22T02:32:49.376Z,20.17
2016-12-22T02:33:58.377Z,20.21
2016-12-22T02:35:07.058Z,20.08
2016-12-22T02:36:16.362Z,20.03
2016-12-22T02:37:25.343Z,20.13
2016-12-22T02:38:34.636Z,20.11
2016-12-22T02:39:43.626Z,20.05
2016-12-22T02:40:52.629Z,19.96
2016-12-22T02:42:01.634Z,20.01
2016-12-22T02:43:10.630Z,19.98
2016-12-22T02:44:19.330Z,19.98
2016-12-22T02:45:28.015Z,19.95
2016-12-22T02:46:37.056Z,19.95
2016-12-22T02:47:46.047Z,19.96
2016-12-22T02:48:54.723Z,20.01
2016-12-22T02:50:03.415Z,19.95
2016-12-22T02:51:12.170Z,19.94
2016-12-22T02:52:21.463Z,19.95
2016-12-22T02:53:30.145Z,19.86
2016-12-22T02:54:38.825Z,19.84
2016-12-22T02:55:47.829Z,19.87
2016-12-22T02:56:56.816Z,19.87
2016-12-22T02:58:05.797Z,19.86
2016-12-22T02:59:15.096Z,19.86
2016-12-22T03:00:24.118Z,19.88
2016-12-22T03:01:34.343Z,19.86
2016-12-22T03:02:43.631Z,19.86
2016-12-22T03:03:53.559Z,19.84
2016-12-22T03:05:02.855Z,19.84
2016-12-22T03:06:12.148Z,19.84
2016-12-22T03:07:21.135Z,19.84
2016-12-22T03:08:30.120Z,19.83
2016-12-22T03:09:38.808Z,19.94
2016-12-22T03:10:47.799Z,19.91
2016-12-22T03:11:56.785Z,19.88
2016-12-22T03:13:05.790Z,19.92
2016-12-22T03:14:15.445Z,19.98
2016-12-22T03:15:24.428Z,19.99
2016-12-22T03:16:33.426Z,19.99
2016-12-22T03:17:42.116Z,20.02
2016-12-22T03:18:51.110Z,19.98
2016-12-22T03:20:00.091Z,19.96
2016-12-22T03:21:09.087Z,20.01
2016-12-22T03:22:17.769Z,20.11
2016-12-22T03:23:26.448Z,20.13
2016-12-22T03:24:36.367Z,20.06
2016-12-22T03:25:45.045Z,20.2
2016-12-22T03:26:54.038Z,20.18
2016-12-22T03:28:03.021Z,20.21
2016-12-22T03:29:12.323Z,20.21
2016-12-22T03:30:21.312Z,20.14
2016-12-22T03:31:30.304Z,20.16
2016-12-22T03:32:38.976Z,20.28
2016-12-22T03:33:47.971Z,20.21
2016-12-22T03:34:56.960Z,20.28
2016-12-22T03:36:06.566Z,20.36
2016-12-22T03:37:16.263Z,20.35
2016-12-22T03:38:25.259Z,20.39
2016-12-22T03:39:34.243Z,20.35
2016-12-22T03:40:43.234Z,20.38
2016-12-22T03:41:52.229Z,20.38
2016-12-22T03:43:00.915Z,20.39
2016-12-22T03:44:09.930Z,20.38
2016-12-22T03:45:18.618Z,20.35
2016-12-22T03:46:28.212Z,20.38
2016-12-22T03:47:37.216Z,20.41
2016-12-22T03:48:46.210Z,20.42
2016-12-22T03:49:55.534Z,20.38
2016-12-22T03:51:04.529Z,20.42
2016-12-22T03:52:14.136Z,20.39
2016-12-22T03:53:23.123Z,20.32
2016-12-22T03:54:32.108Z,20.38
2016-12-22T03:55:40.783Z,20.36
2016-12-22T03:56:50.383Z,20.39
2016-12-22T03:57:59.374Z,20.35
2016-12-22T03:59:08.354Z,20.36
2016-12-22T04:00:17.030Z,20.42
2016-12-22T04:01:26.631Z,20.38
2016-12-22T04:02:35.925Z,20.41
2016-12-22T04:03:45.528Z,20.28
2016-12-22T04:04:55.127Z,20.31
2016-12-22T04:06:03.809Z,20.31
2016-12-22T04:07:12.489Z,20.33
2016-12-22T04:08:21.173Z,20.28
2016-12-22T04:09:30.168Z,20.29
2016-12-22T04:10:39.191Z,20.29
2016-12-22T04:11:48.513Z,20.2
2016-12-22T04:12:57.804Z,20.17
2016-12-22T04:14:06.800Z,20.16
2016-12-22T04:15:16.089Z,20.31
2016-12-22T04:16:24.768Z,20.23
2016-12-22T04:17:33.453Z,20.18
2016-12-22T04:18:42.740Z,20.2
2016-12-22T04:19:51.739Z,20.21
2016-12-22T04:21:01.336Z,20.18
2016-12-22T04:22:10.649Z,20.1
2016-12-22T04:23:19.638Z,20.13
2016-12-22T04:24:29.244Z,20.24
2016-12-22T04:25:37.930Z,20.21
2016-12-22T04:26:47.223Z,20.1
2016-12-22T04:27:55.916Z,20.1
2016-12-22T04:29:04.590Z,20.16
2016-12-22T04:30:13.618Z,20.13
2016-12-22T04:31:22.607Z,20.08
2016-12-22T04:32:31.591Z,20.13
2016-12-22T04:33:41.192Z,20.16
2016-12-22T04:34:50.183Z,20.06
2016-12-22T04:35:59.178Z,20.13
2016-12-22T04:37:08.200Z,20.06
2016-12-22T04:38:17.528Z,20.02
2016-12-22T04:39:27.124Z,20.02
2016-12-22T04:40:36.416Z,20.06
2016-12-22T04:41:45.091Z,20.06
2016-12-22T04:42:53.803Z,20.08
2016-12-22T04:44:03.087Z,19.99
2016-12-22T04:45:12.084Z,20.02
2016-12-22T04:46:20.768Z,19.98
2016-12-22T04:47:29.753Z,20.01
2016-12-22T04:48:39.071Z,19.99
2016-12-22T04:49:47.751Z,19.98
2016-12-22T04:50:57.058Z,19.99
2016-12-22T04:52:05.747Z,19.95
2016-12-22T04:53:15.046Z,19.98
2016-12-22T04:54:24.352Z,19.99
2016-12-22T04:55:33.043Z,20.03
2016-12-22T04:56:41.726Z,19.91
2016-12-22T04:57:50.426Z,19.99
2016-12-22T04:58:59.126Z,20.02
2016-12-22T05:00:08.109Z,19.95
2016-12-22T05:01:17.435Z,19.98
2016-12-22T05:02:26.735Z,19.99
2016-12-22T05:03:35.427Z,20.02
2016-12-22T05:04:45.062Z,19.98
2016-12-22T05:05:54.042Z,19.99
2016-12-22T05:07:03.041Z,20.02
2016-12-22T05:08:12.347Z,20.03
2016-12-22T05:09:21.046Z,20.05
2016-12-22T05:10:30.659Z,20.13
2016-12-22T05:11:39.952Z,20.08
2016-12-22T05:12:49.255Z,20.13
2016-12-22T05:13:57.938Z,20.13
2016-12-22T05:15:07.235Z,20.1
2016-12-22T05:16:16.552Z,20.21
2016-12-22T05:17:25.262Z,20.2
2016-12-22T05:18:34.278Z,20.1
2016-12-22T05:19:43.582Z,20.13
2016-12-22T05:20:52.910Z,20.2
2016-12-22T05:22:01.889Z,20.24
2016-12-22T05:23:10.573Z,20.18
2016-12-22T05:24:19.875Z,20.16
2016-12-22T05:25:29.175Z,20.26
2016-12-22T05:26:38.792Z,20.28
2016-12-22T05:27:47.476Z,20.24
2016-12-22T05:28:56.784Z,20.28
2016-12-22T05:30:05.499Z,20.29
2016-12-22T05:31:14.175Z,20.28
2016-12-22T05:32:23.483Z,20.24
2016-12-22T05:33:32.472Z,20.31
2016-12-22T05:34:41.766Z,20.24
2016-12-22T05:35:50.757Z,20.29
2016-12-22T05:36:59.749Z,20.36
2016-12-22T05:38:08.746Z,20.31
2016-12-22T05:39:17.730Z,20.31
2016-12-22T05:40:26.715Z,20.28
2016-12-22T05:41:36.322Z,20.38
2016-12-22T05:42:45.004Z,20.24
2016-12-22T05:43:54.350Z,20.36
2016-12-22T05:45:03.332Z,20.36
2016-12-22T05:46:12.003Z,20.31
2016-12-22T05:47:20.994Z,20.32
2016-12-22T05:48:29.997Z,20.32
2016-12-22T05:49:38.992Z,20.28
2016-12-22T05:50:48.284Z,20.28
2016-12-22T05:51:57.930Z,20.29
2016-12-22T05:53:06.607Z,20.35
2016-12-22T05:54:16.208Z,20.36
2016-12-22T05:55:25.193Z,20.42
2016-12-22T05:56:33.886Z,20.54
2016-12-22T05:57:43.495Z,20.5
2016-12-22T05:58:53.104Z,20.47
2016-12-22T06:00:02.413Z,20.62
2016-12-22T06:01:12.060Z,20.66
2016-12-22T06:02:21.655Z,20.66
2016-12-22T06:03:30.989Z,20.66
2016-12-22T06:04:39.969Z,20.85
2016-12-22T06:05:48.953Z,20.82
2016-12-22T06:06:57.955Z,20.79
2016-12-22T06:08:07.274Z,20.88
2016-12-22T06:09:16.562Z,20.91
2016-12-22T06:10:26.481Z,20.94
2016-12-22T06:11:35.778Z,20.99
2016-12-22T06:12:44.761Z,21.03
2016-12-22T06:13:53.456Z,21.09
2016-12-22T06:15:02.456Z,21.14
2016-12-22T06:16:11.442Z,21.14
2016-12-22T06:17:21.044Z,21.25
2016-12-22T06:18:29.737Z,21.27
2016-12-22T06:19:38.722Z,21.25
2016-12-22T06:20:48.018Z,21.35
2016-12-22T06:21:56.694Z,21.44
2016-12-22T06:23:05.380Z,21.4
2016-12-22T06:24:14.363Z,21.44
2016-12-22T06:25:23.042Z,21.53
2016-12-22T06:26:32.349Z,21.54
2016-12-22T06:27:41.044Z,21.64
2016-12-22T06:28:50.045Z,21.64
2016-12-22T06:29:59.339Z,21.75
2016-12-22T06:31:08.331Z,21.74
2016-12-22T06:32:17.325Z,21.83
2016-12-22T06:33:26.305Z,21.91
2016-12-22T06:34:35.297Z,21.91
2016-12-22T06:35:44.289Z,21.92
2016-12-22T06:36:53.887Z,21.98
2016-12-22T06:38:03.192Z,21.96
2016-12-22T06:39:12.184Z,21.98
2016-12-22T06:40:21.177Z,22.1
2016-12-22T06:41:30.165Z,22.07
2016-12-22T06:42:39.162Z,22.07
2016-12-22T06:43:48.156Z,22.12
2016-12-22T06:44:57.153Z,22.2
2016-12-22T06:46:06.748Z,22.18
2016-12-22T06:47:15.774Z,22.22
2016-12-22T06:48:24.762Z,22.28
2016-12-22T06:49:34.359Z,22.3
2016-12-22T06:50:43.043Z,22.33
2016-12-22T06:51:52.063Z,22.39
2016-12-22T06:53:01.556Z,22.47
2016-12-22T06:54:10.238Z,22.37
2016-12-22T06:55:19.852Z,22.43
2016-12-22T06:56:28.881Z,22.43
2016-12-22T06:57:37.559Z,22.43
2016-12-22T06:58:46.549Z,22.45
2016-12-22T06:59:55.546Z,22.36
2016-12-22T07:01:04.234Z,22.46
2016-12-22T07:02:12.922Z,22.39
2016-12-22T07:03:21.909Z,22.37
2016-12-22T07:04:30.937Z,22.42
2016-12-22T07:05:40.541Z,22.35
2016-12-22T07:06:49.562Z,22.37
2016-12-22T07:07:58.846Z,22.31
2016-12-22T07:09:08.137Z,22.25
2016-12-22T07:10:17.744Z,22.25
2016-12-22T07:11:26.463Z,22.27
2016-12-22T07:12:35.481Z,22.2
2016-12-22T07:13:44.479Z,22.21
2016-12-22T07:14:53.202Z,22.14
2016-12-22T07:16:02.217Z,21.92
2016-12-22T07:17:11.199Z,21.83
2016-12-22T07:18:20.183Z,21.67
2016-12-22T07:19:29.477Z,21.52
2016-12-22T07:20:38.180Z,21.44
2016-12-22T07:21:46.864Z,21.49
2016-12-22T07:22:55.541Z,21.43
2016-12-22T07:24:04.224Z,21.43
2016-12-22T07:25:13.526Z,21.47
2016-12-22T07:26:22.836Z,21.4
2016-12-22T07:27:31.888Z,21.32
2016-12-22T07:28:40.581Z,21.24
2016-12-22T07:29:49.259Z,21.32
2016-12-22T07:30:58.564Z,21.34
2016-12-22T07:32:07.873Z,21.32
2016-12-22T07:33:17.493Z,21.21
2016-12-22T07:34:26.808Z,21.24
2016-12-22T07:35:35.811Z,21.25
2016-12-22T07:36:44.545Z,21.27
2016-12-22T07:37:53.550Z,21.19
2016-12-22T07:39:02.254Z,21.12
2016-12-22T07:40:11.885Z,21.12
2016-12-22T07:41:20.892Z,21.03
2016-12-22T07:42:30.223Z,21.09
2016-12-22T07:43:39.557Z,21.06
2016-12-22T07:44:48.569Z,21.12
2016-12-22T07:45:57.891Z,21.04
2016-12-22T07:47:06.605Z,21.09
2016-12-22T07:48:15.925Z,20.99
2016-12-22T07:49:25.255Z,21.03
2016-12-22T07:50:33.973Z,20.94
2016-12-22T07:51:43.297Z,20.92
2016-12-22T07:52:52.312Z,20.94
2016-12-22T07:54:01.344Z,20.97
2016-12-22T07:55:10.359Z,20.87
2016-12-22T07:56:19.977Z,20.85
2016-12-22T07:57:28.679Z,20.82
2016-12-22T07:58:38.032Z,20.87
2016-12-22T07:59:46.773Z,20.89
2016-12-22T08:00:56.092Z,20.82
2016-12-22T08:02:04.827Z,20.82
2016-12-22T08:03:13.832Z,20.76
2016-12-22T08:04:22.835Z,20.8
2016-12-22T08:05:31.843Z,20.79
2016-12-22T08:06:40.849Z,20.76
2016-12-22T08:07:49.860Z,20.64
2016-12-22T08:08:58.864Z,20.69
2016-12-22T08:10:07.872Z,20.69
2016-12-22T08:11:16.888Z,20.69
2016-12-22T08:12:25.914Z,20.7
2016-12-22T08:13:35.232Z,20.7
2016-12-22T08:14:43.924Z,20.69
2016-12-22T08:15:52.951Z,20.64
2016-12-22T08:17:02.579Z,20.67
2016-12-22T08:18:11.278Z,20.7
2016-12-22T08:19:20.286Z,20.7
2016-12-22T08:20:29.602Z,20.66
2016-12-22T08:21:38.309Z,20.69
2016-12-22T08:22:47.018Z,20.61
2016-12-22T08:23:55.722Z,20.66
2016-12-22T08:25:04.426Z,20.58
2016-12-22T08:26:13.743Z,20.61
2016-12-22T08:27:22.453Z,20.54
2016-12-22T08:28:32.081Z,20.57
2016-12-22T08:29:40.829Z,20.58
2016-12-22T08:30:49.578Z,20.48
2016-12-22T08:31:58.274Z,20.43
2016-12-22T08:33:07.590Z,20.54
2016-12-22T08:34:16.302Z,20.48
2016-12-22T08:35:25.316Z,20.41
2016-12-22T08:36:34.024Z,20.48
2016-12-22T08:37:42.731Z,20.51
2016-12-22T08:38:52.055Z,20.47
2016-12-22T08:40:01.055Z,20.52
2016-12-22T08:41:10.382Z,20.55
2016-12-22T08:42:19.112Z,20.38
2016-12-22T08:43:27.809Z,20.54
2016-12-22T08:44:36.824Z,20.42
2016-12-22T08:45:45.858Z,20.55
2016-12-22T08:46:54.581Z,20.41
2016-12-22T08:48:03.615Z,20.39
2016-12-22T08:49:12.311Z,20.35
2016-12-22T08:50:21.019Z,20.39
2016-12-22T08:51:29.731Z,20.41
2016-12-22T08:52:38.435Z,20.38
2016-12-22T08:53:47.441Z,20.39
2016-12-22T08:54:56.144Z,20.28
2016-12-22T08:56:05.463Z,20.35
2016-12-22T08:57:14.466Z,20.36
2016-12-22T08:58:23.157Z,20.39
2016-12-22T08:59:31.905Z,20.35
2016-12-22T09:00:40.913Z,20.39
2016-12-22T09:01:49.930Z,20.39
2016-12-22T09:02:58.639Z,20.41
2016-12-22T09:04:07.337Z,20.35
2016-12-22T09:05:16.047Z,20.28
2016-12-22T09:06:25.058Z,20.31
2016-12-22T09:07:33.757Z,20.31
2016-12-22T09:08:43.108Z,20.33
2016-12-22T09:09:51.805Z,20.31
2016-12-22T09:11:00.824Z,20.28
2016-12-22T09:12:10.163Z,20.32
2016-12-22T09:13:19.490Z,20.36
2016-12-22T09:14:28.510Z,20.28
2016-12-22T09:15:37.515Z,20.24
2016-12-22T09:16:46.824Z,20.24
